Time;durP1;ratioP1;P1;durP2;ratioP2;P2;SDS_P1;SDS_P2;PMS_P1;PMS_P2;Temp;Humidity;BMP_temperature;BMP_pressure;BME280_temperature;BME280_humidity;BME280_pressure;Samples;Min_cycle;Max_cycle;Signal;HPM_P1;HPM_P2
2022/09/13 00:01:31;;;;;;;15.45;3.95;;;24.10;77.00;;;;;;5017548;28;20461;-73
2022/09/13 00:03:57;;;;;;;12.07;5.10;;;24.20;76.90;;;;;;5035184;28;20021;-70
2022/09/13 00:06:24;;;;;;;10.80;4.13;;;24.10;76.50;;;;;;5034951;28;20049;-71
2022/09/13 00:08:52;;;;;;;13.77;3.90;;;24.10;76.40;;;;;;5035125;28;20042;-71
2022/09/13 00:11:22;;;;;;;12.82;4.55;;;24.10;76.10;;;;;;5035045;28;20025;-71
2022/09/13 00:13:48;;;;;;;12.52;4.05;;;24.10;76.00;;;;;;5017155;28;20116;-71
2022/09/13 00:16:16;;;;;;;9.38;3.80;;;24.10;75.50;;;;;;5035049;28;20111;-73
2022/09/13 00:18:42;;;;;;;8.50;3.15;;;24.00;75.00;;;;;;5034781;28;20044;-71
2022/09/13 00:21:14;;;;;;;8.50;3.30;;;24.00;74.70;;;;;;5034857;28;20053;-71
2022/09/13 00:23:43;;;;;;;8.45;3.42;;;23.90;74.10;;;;;;5034626;28;20026;-71
2022/09/13 00:26:14;;;;;;;11.48;3.38;;;23.90;74.50;;;;;;5034730;28;20036;-71
2022/09/13 00:28:44;;;;;;;13.05;3.90;;;23.90;73.90;;;;;;5034688;28;20059;-72
2022/09/13 00:31:10;;;;;;;10.73;3.78;;;24.00;73.60;;;;;;5017111;28;20034;-72
2022/09/13 00:33:37;;;;;;;9.25;3.38;;;23.90;73.80;;;;;;5016918;28;20037;-74
2022/09/13 00:36:07;;;;;;;8.20;2.92;;;23.90;74.00;;;;;;5034894;28;20053;-71
2022/09/13 00:38:37;;;;;;;9.70;3.03;;;23.80;74.10;;;;;;5037469;28;20049;-72
2022/09/13 00:41:05;;;;;;;8.23;2.83;;;23.80;74.60;;;;;;5042459;28;20029;-73
2022/09/13 00:43:43;;;;;;;10.43;3.20;;;23.70;74.90;;;;;;5041064;28;20025;-71
2022/09/13 00:46:12;;;;;;;5.43;2.40;;;23.70;75.20;;;;;;5034482;28;20439;-71
2022/09/13 00:48:38;;;;;;;10.43;3.00;;;23.70;75.10;;;;;;5050011;28;20352;-73
2022/09/13 00:51:07;;;;;;;52.08;3.47;;;23.70;75.20;;;;;;5034656;28;20032;-75
2022/09/13 00:53:37;;;;;;;7.78;2.95;;;23.60;75.40;;;;;;5034369;28;20029;-72
2022/09/13 00:56:25;;;;;;;13.70;2.63;;;23.50;75.30;;;;;;5034238;28;20017;-73
2022/09/13 00:59:01;;;;;;;6.15;2.55;;;23.50;76.10;;;;;;5034178;28;20022;-78
2022/09/13 01:01:33;;;;;;;9.27;2.58;;;23.50;75.90;;;;;;5034131;28;20029;-74
2022/09/13 01:04:01;;;;;;;8.85;2.65;;;23.50;75.70;;;;;;5049240;28;20412;-74
2022/09/13 01:06:29;;;;;;;5.55;2.60;;;23.40;75.80;;;;;;5033615;28;20057;-73
2022/09/13 01:08:57;;;;;;;9.02;2.70;;;23.40;76.00;;;;;;5033701;28;20033;-69
2022/09/13 01:11:32;;;;;;;7.32;2.63;;;23.30;75.90;;;;;;5033936;28;20026;-71
2022/09/13 01:13:58;;;;;;;10.02;2.90;;;23.30;76.00;;;;;;5033585;28;20103;-74
2022/09/13 01:16:25;;;;;;;6.57;2.47;;;23.30;76.10;;;;;;5033708;28;20379;-72
2022/09/13 01:18:50;;;;;;;9.93;2.58;;;23.30;76.20;;;;;;5033773;28;20075;-72
2022/09/13 01:21:41;;;;;;;8.23;2.83;;;23.30;76.10;;;;;;5033740;28;20431;-71
2022/09/13 01:24:31;;;;;;;5.90;2.25;;;23.30;76.90;;;;;;5033684;28;20033;-70
2022/09/13 01:27:41;;;;;;;6.82;2.85;;;23.30;77.00;;;;;;5048891;28;20394;-71
2022/09/13 01:30:21;;;;;;;9.00;2.67;;;23.20;77.20;;;;;;5033612;28;20129;-72
2022/09/13 01:33:08;;;;;;;5.63;2.45;;;23.10;77.60;;;;;;5033567;28;20057;-72
2022/09/13 01:35:49;;;;;;;6.55;2.35;;;23.10;77.80;;;;;;5033430;28;20033;-72
2022/09/13 01:38:18;;;;;;;7.68;2.97;;;23.10;78.00;;;;;;5033373;28;20032;-71
2022/09/13 01:41:05;;;;;;;8.25;2.67;;;23.10;78.20;;;;;;5033340;28;20025;-69
2022/09/13 01:43:44;;;;;;;6.80;2.70;;;23.10;78.20;;;;;;5032695;28;20022;-76
2022/09/13 01:46:15;;;;;;;10.43;3.40;;;23.10;77.60;;;;;;5033164;28;20025;-71
2022/09/13 01:49:12;;;;;;;10.75;2.42;;;23.10;77.60;;;;;;5033269;28;20036;-73
2022/09/13 01:51:49;;;;;;;14.80;3.10;;;23.10;78.40;;;;;;5033431;28;20025;-74
2022/09/13 01:54:38;;;;;;;10.75;2.88;;;23.10;77.40;;;;;;5034369;28;20044;-71
2022/09/13 01:57:25;;;;;;;13.43;3.00;;;23.10;78.20;;;;;;5033058;28;20030;-76
2022/09/13 01:59:54;;;;;;;7.53;2.80;;;23.00;78.30;;;;;;5033140;28;20025;-73
2022/09/13 02:02:38;;;;;;;13.70;2.65;;;23.00;77.30;;;;;;5033149;28;20032;-70
2022/09/13 02:05:36;;;;;;;6.68;2.30;;;22.90;78.20;;;;;;5032644;28;20081;-70
2022/09/13 02:08:16;;;;;;;7.65;2.53;;;22.90;78.30;;;;;;5032643;28;20449;-71
2022/09/13 02:10:52;;;;;;;8.88;2.22;;;22.90;78.20;;;;;;5032611;28;20111;-69
2022/09/13 02:13:22;;;;;;;6.30;2.20;;;22.90;78.40;;;;;;5032568;28;20497;-70
2022/09/13 02:15:53;;;;;;;5.95;2.35;;;22.80;77.70;;;;;;5032672;28;20025;-72
2022/09/13 02:18:32;;;;;;;6.60;2.30;;;22.70;77.70;;;;;;5032696;28;20045;-69
2022/09/13 02:21:02;;;;;;;8.75;2.58;;;22.70;77.80;;;;;;5032469;28;20029;-69
2022/09/13 02:23:36;;;;;;;7.78;2.42;;;22.70;77.80;;;;;;5032418;28;20048;-74
2022/09/13 02:26:05;;;;;;;9.52;2.45;;;22.70;77.80;;;;;;5032605;28;20037;-70
2022/09/13 02:28:38;;;;;;;8.45;2.20;;;22.60;77.70;;;;;;5014748;28;20426;-69
2022/09/13 02:31:08;;;;;;;7.28;2.60;;;22.50;77.80;;;;;;5032896;28;20029;-70
2022/09/13 02:33:58;;;;;;;8.88;2.53;;;22.60;78.00;;;;;;5032475;28;20032;-70
2022/09/13 02:36:28;;;;;;;7.93;2.42;;;22.70;78.00;;;;;;5032481;28;20028;-70
2022/09/13 02:39:01;;;;;;;9.15;2.42;;;22.70;78.00;;;;;;5032473;28;20026;-74
2022/09/13 02:42:02;;;;;;;7.53;2.42;;;22.70;77.70;;;;;;5032506;28;20651;-71
2022/09/13 02:44:39;;;;;;;7.95;2.45;;;22.70;78.70;;;;;;5029267;28;20036;-70
2022/09/13 02:47:10;;;;;;;7.35;2.45;;;22.70;78.80;;;;;;5032444;28;20036;-70
2022/09/13 02:50:14;;;;;;;6.68;2.40;;;22.60;77.90;;;;;;5032395;28;20383;-75
2022/09/13 02:52:48;;;;;;;9.85;2.72;;;22.60;79.00;;;;;;5032697;28;20025;-72
2022/09/13 02:55:35;;;;;;;7.70;2.95;;;22.60;78.20;;;;;;5034727;28;20033;-76
2022/09/13 02:58:18;;;;;;;7.75;2.78;;;22.70;79.00;;;;;;5037746;28;20105;-71
2022/09/13 03:00:45;;;;;;;8.82;2.78;;;22.70;78.90;;;;;;5041864;28;20121;-70
2022/09/13 03:03:14;;;;;;;8.50;2.72;;;22.60;77.90;;;;;;5039217;28;20155;-72
2022/09/13 03:05:40;;;;;;;6.60;2.35;;;22.70;77.90;;;;;;5036564;28;20046;-76
2022/09/13 03:08:09;;;;;;;11.02;2.70;;;22.60;77.60;;;;;;5036745;28;20390;-73
2022/09/13 03:10:59;;;;;;;6.97;2.10;;;22.60;77.60;;;;;;5036604;28;20402;-72
2022/09/13 03:14:02;;;;;;;8.82;2.53;;;22.60;78.30;;;;;;5036480;28;20441;-70
2022/09/13 03:16:43;;;;;;;4.47;2.22;;;22.60;78.20;;;;;;5036079;28;20421;-75
2022/09/13 03:19:53;;;;;;;8.63;2.45;;;22.50;78.00;;;;;;5036026;28;20120;-72
2022/09/13 03:22:46;;;;;;;7.60;2.22;;;22.50;77.90;;;;;;5012542;28;20048;-72
2022/09/13 03:25:16;;;;;;;11.38;2.70;;;22.40;78.00;;;;;;5035688;28;20487;-75
2022/09/13 03:27:54;;;;;;;6.63;2.20;;;22.30;77.00;;;;;;5035726;28;20030;-69
2022/09/13 03:30:20;;;;;;;8.43;2.63;;;22.30;77.00;;;;;;5035786;28;20029;-70
2022/09/13 03:32:51;;;;;;;8.02;2.25;;;22.30;77.00;;;;;;5035662;28;20502;-70
2022/09/13 03:35:35;;;;;;;7.68;2.55;;;22.30;76.90;;;;;;5035568;28;20109;-71
2022/09/13 03:38:07;;;;;;;5.10;2.40;;;22.30;77.70;;;;;;5035510;28;20029;-72
2022/09/13 03:40:54;;;;;;;7.32;2.08;;;22.30;77.80;;;;;;5035405;28;20450;-70
2022/09/13 03:43:38;;;;;;;3.90;2.13;;;22.30;76.90;;;;;;5035463;28;20055;-74
2022/09/13 03:46:18;;;;;;;7.30;2.33;;;22.20;77.80;;;;;;5035544;28;20497;-70
2022/09/13 03:48:44;;;;;;;11.38;2.65;;;22.20;77.70;;;;;;5035591;28;20098;-71
2022/09/13 03:51:10;;;;;;;7.20;2.42;;;22.20;76.80;;;;;;5035439;28;20138;-75
2022/09/13 03:53:46;;;;;;;7.75;2.47;;;22.20;76.90;;;;;;5017408;28;20034;-70
2022/09/13 03:56:16;;;;;;;6.13;2.40;;;22.20;76.80;;;;;;5035350;28;20479;-72
2022/09/13 03:58:42;;;;;;;8.65;2.45;;;22.20;76.80;;;;;;5036123;28;20037;-77
2022/09/13 04:01:11;;;;;;;6.85;2.22;;;22.20;77.00;;;;;;5035741;28;20031;-76
2022/09/13 04:03:38;;;;;;;6.60;2.75;;;22.20;77.00;;;;;;5017961;28;20504;-76
2022/09/13 04:06:05;;;;;;;7.45;2.75;;;22.10;76.80;;;;;;5034297;28;20037;-74
2022/09/13 04:08:31;;;;;;;8.68;2.70;;;22.00;77.00;;;;;;5017409;28;20095;-74
2022/09/13 04:10:58;;;;;;;11.45;2.53;;;22.00;77.10;;;;;;5035139;28;20029;-75
2022/09/13 04:13:24;;;;;;;5.70;2.50;;;22.00;77.30;;;;;;5034901;28;20033;-77
2022/09/13 04:15:49;;;;;;;6.65;1.95;;;22.10;77.50;;;;;;5034668;28;20100;-74
2022/09/13 04:18:16;;;;;;;8.68;3.05;;;22.00;77.10;;;;;;5034909;28;20485;-77
2022/09/13 04:20:42;;;;;;;8.18;2.55;;;22.00;77.10;;;;;;5034670;28;20478;-76
2022/09/13 04:23:08;;;;;;;10.50;2.58;;;22.00;76.90;;;;;;5034975;28;20032;-76
2022/09/13 04:25:37;;;;;;;7.68;2.00;;;22.10;76.90;;;;;;5034772;28;20014;-77
2022/09/13 04:28:02;;;;;;;5.97;2.28;;;22.00;76.10;;;;;;5034616;28;20137;-76
2022/09/13 04:30:29;;;;;;;6.70;2.53;;;22.00;76.30;;;;;;5034680;28;20022;-75
2022/09/13 04:32:58;;;;;;;5.88;2.22;;;22.00;76.20;;;;;;5034562;28;20100;-74
2022/09/13 04:35:24;;;;;;;7.88;2.50;;;22.00;76.40;;;;;;5034609;28;20018;-76
2022/09/13 04:37:50;;;;;;;8.02;2.60;;;22.00;75.60;;;;;;5034562;28;20100;-73
2022/09/13 04:40:16;;;;;;;6.45;2.63;;;21.90;75.40;;;;;;5034638;28;20056;-74
2022/09/13 04:42:44;;;;;;;9.18;2.33;;;21.90;75.80;;;;;;5034319;28;20127;-73
2022/09/13 04:45:09;;;;;;;7.75;2.47;;;21.90;75.60;;;;;;5034576;28;20092;-76
2022/09/13 04:47:35;;;;;;;8.35;2.63;;;21.90;75.70;;;;;;5034415;28;20477;-76
2022/09/13 04:50:02;;;;;;;7.68;2.35;;;21.80;75.60;;;;;;5034531;28;20026;-77
2022/09/13 04:52:28;;;;;;;8.18;2.50;;;21.80;76.50;;;;;;5034485;28;20029;-74
2022/09/13 04:54:54;;;;;;;6.43;2.55;;;21.80;75.80;;;;;;5034244;28;20376;-76
2022/09/13 04:57:20;;;;;;;7.28;2.42;;;21.80;75.70;;;;;;5034236;28;20033;-77
2022/09/13 04:59:46;;;;;;;8.40;2.38;;;21.90;75.40;;;;;;5033956;28;20028;-78
2022/09/13 05:02:11;;;;;;;10.77;2.75;;;21.90;75.40;;;;;;5033656;28;20021;-77
2022/09/13 05:04:37;;;;;;;8.05;2.40;;;21.90;75.40;;;;;;5033622;28;20049;-79
2022/09/13 05:07:03;;;;;;;15.93;2.58;;;21.90;74.80;;;;;;5033789;28;20038;-74
2022/09/13 05:09:29;;;;;;;10.27;2.60;;;21.90;74.80;;;;;;5033735;28;20031;-77
2022/09/13 05:11:55;;;;;;;5.93;2.45;;;21.90;74.60;;;;;;5033960;28;20033;-76
2022/09/13 05:14:21;;;;;;;8.52;2.65;;;21.90;74.50;;;;;;5034210;28;20029;-76
2022/09/13 05:16:46;;;;;;;7.80;2.25;;;21.90;74.80;;;;;;5032561;28;20076;-78
2022/09/13 05:19:12;;;;;;;8.32;2.35;;;21.90;74.10;;;;;;5050632;28;20021;-72
2022/09/13 05:21:38;;;;;;;10.73;2.50;;;21.90;73.80;;;;;;5034991;28;20025;-76
2022/09/13 05:24:05;;;;;;;6.53;2.35;;;22.00;73.70;;;;;;5034313;28;20029;-75
2022/09/13 05:26:30;;;;;;;6.68;2.30;;;22.00;73.60;;;;;;5018383;28;20107;-73
2022/09/13 05:29:00;;;;;;;7.32;2.35;;;22.00;73.30;;;;;;5033798;28;20034;-75
2022/09/13 05:31:31;;;;;;;8.43;2.70;;;22.10;73.20;;;;;;5035159;28;20036;-75
2022/09/13 05:34:00;;;;;;;7.22;2.90;;;22.10;72.70;;;;;;5033772;28;20056;-72
2022/09/13 05:36:26;;;;;;;11.65;2.85;;;22.20;72.60;;;;;;5032024;28;20033;-75
2022/09/13 05:38:56;;;;;;;10.30;2.40;;;22.20;72.30;;;;;;5033180;28;20086;-75
2022/09/13 05:41:22;;;;;;;9.77;2.67;;;22.10;72.10;;;;;;5032543;28;20199;-75
2022/09/13 05:43:48;;;;;;;6.53;2.40;;;22.20;71.80;;;;;;5033122;28;20049;-74
2022/09/13 05:46:18;;;;;;;10.60;2.60;;;22.20;71.70;;;;;;5033170;28;20075;-73
2022/09/13 05:48:44;;;;;;;5.35;2.00;;;22.20;71.60;;;;;;5047740;28;20041;-73
2022/09/13 05:51:13;;;;;;;10.68;2.80;;;22.30;72.00;;;;;;5032778;28;20029;-75
2022/09/13 05:53:41;;;;;;;10.77;3.00;;;22.50;71.40;;;;;;5033362;28;20367;-74
2022/09/13 05:56:09;;;;;;;12.43;2.45;;;22.60;71.30;;;;;;5032206;28;20017;-76
2022/09/13 05:58:40;;;;;;;7.70;2.30;;;22.70;70.70;;;;;;5033656;28;20110;-74
2022/09/13 06:01:06;;;;;;;8.73;2.33;;;22.90;70.30;;;;;;5033484;28;20101;-73
2022/09/13 06:03:32;;;;;;;9.23;2.28;;;23.00;70.10;;;;;;5033043;28;20109;-74
2022/09/13 06:05:58;;;;;;;8.27;2.42;;;23.20;69.90;;;;;;5063176;28;20121;-72
2022/09/13 06:08:25;;;;;;;5.85;2.47;;;23.40;69.20;;;;;;5073504;28;20048;-72
2022/09/13 06:10:57;;;;;;;6.82;2.70;;;23.50;69.00;;;;;;5073244;28;20103;-77
2022/09/13 06:13:24;;;;;;;9.23;2.03;;;23.70;68.50;;;;;;5072999;28;20016;-76
2022/09/13 06:15:50;;;;;;;13.45;3.08;;;23.80;68.50;;;;;;5072844;28;20103;-76
2022/09/13 06:18:16;;;;;;;7.25;2.53;;;24.00;68.00;;;;;;5055033;28;20507;-76
2022/09/13 06:20:42;;;;;;;9.57;2.63;;;24.10;66.90;;;;;;5072622;28;20028;-77
2022/09/13 06:23:08;;;;;;;9.25;2.85;;;24.20;66.60;;;;;;5072581;28;20020;-78
2022/09/13 06:25:34;;;;;;;5.97;2.50;;;24.20;65.80;;;;;;5072682;28;20428;-75
2022/09/13 06:28:00;;;;;;;6.93;2.17;;;24.30;65.90;;;;;;5066471;28;20031;-77
2022/09/13 06:30:25;;;;;;;10.13;2.85;;;24.60;65.90;;;;;;5053293;28;20033;-75
2022/09/13 06:32:51;;;;;;;12.00;3.72;;;24.70;65.60;;;;;;5052672;28;20419;-77
2022/09/13 06:35:17;;;;;;;9.13;3.05;;;24.80;64.90;;;;;;5052598;28;20108;-76
2022/09/13 06:37:43;;;;;;;7.80;2.35;;;25.00;64.60;;;;;;5052496;28;20024;-77
2022/09/13 06:40:09;;;;;;;12.25;3.28;;;24.90;64.00;;;;;;5068039;28;20179;-77
2022/09/13 06:42:37;;;;;;;11.48;3.00;;;24.80;64.00;;;;;;5035012;28;20029;-77
2022/09/13 06:45:03;;;;;;;7.82;2.72;;;25.00;63.90;;;;;;5034750;28;20386;-78
2022/09/13 06:47:29;;;;;;;8.60;2.60;;;25.10;64.00;;;;;;5034354;28;20211;-79
2022/09/13 06:49:56;;;;;;;8.68;2.38;;;25.30;63.70;;;;;;5052430;28;20132;-78
2022/09/13 06:52:22;;;;;;;10.48;3.13;;;25.30;63.30;;;;;;5052850;28;20057;-77
2022/09/13 06:54:48;;;;;;;23.88;3.63;;;25.40;63.10;;;;;;5054891;28;20029;-78
2022/09/13 06:57:13;;;;;;;15.88;3.45;;;25.40;62.60;;;;;;5052559;28;20022;-78
2022/09/13 06:59:39;;;;;;;16.88;3.30;;;25.50;62.90;;;;;;5052420;28;20017;-75
2022/09/13 07:02:05;;;;;;;13.68;3.05;;;25.60;62.40;;;;;;5052456;28;20363;-77
2022/09/13 07:04:30;;;;;;;14.43;3.10;;;25.70;61.90;;;;;;5071614;28;20062;-77
2022/09/13 07:06:58;;;;;;;18.13;3.35;;;25.80;62.00;;;;;;5072197;28;20044;-76
2022/09/13 07:09:25;;;;;;;9.60;2.90;;;25.90;61.60;;;;;;5072515;28;20037;-77
2022/09/13 07:11:53;;;;;;;19.67;3.10;;;26.00;61.50;;;;;;5072404;28;20052;-73
2022/09/13 07:14:22;;;;;;;10.55;2.72;;;25.90;61.00;;;;;;5054052;28;20028;-74
2022/09/13 07:16:50;;;;;;;11.23;2.83;;;25.90;61.00;;;;;;5072173;28;20028;-75
2022/09/13 07:19:28;;;;;;;14.48;3.67;;;25.90;60.90;;;;;;5072233;28;20028;-74
2022/09/13 07:21:55;;;;;;;12.75;3.05;;;26.00;60.70;;;;;;5073078;28;20029;-75
2022/09/13 07:24:21;;;;;;;10.77;2.80;;;26.10;60.40;;;;;;5072743;28;20441;-73
2022/09/13 07:26:48;;;;;;;11.18;3.00;;;26.10;60.30;;;;;;5072232;28;20025;-74
2022/09/13 07:29:17;;;;;;;15.55;2.95;;;26.20;60.00;;;;;;5071821;28;20079;-73
2022/09/13 07:31:46;;;;;;;13.30;2.70;;;26.30;60.00;;;;;;5072182;28;20028;-75
2022/09/13 07:34:15;;;;;;;12.82;3.03;;;26.40;60.20;;;;;;5072094;28;20029;-74
2022/09/13 07:36:41;;;;;;;10.20;2.67;;;26.40;59.60;;;;;;5072718;28;20103;-76
2022/09/13 07:39:07;;;;;;;13.95;3.17;;;26.50;59.30;;;;;;5073109;28;20025;-76
2022/09/13 07:41:33;;;;;;;10.90;3.40;;;26.50;59.40;;;;;;5078195;28;20559;-74
2022/09/13 07:44:00;;;;;;;14.27;2.92;;;26.60;59.20;;;;;;5078224;28;20466;-74
2022/09/13 07:46:31;;;;;;;12.55;2.95;;;26.70;58.90;;;;;;5075843;28;20123;-75
2022/09/13 07:48:57;;;;;;;17.63;3.15;;;26.70;58.40;;;;;;5075505;28;20028;-73
2022/09/13 07:51:26;;;;;;;10.07;2.72;;;26.80;58.10;;;;;;5075633;28;20052;-74
2022/09/13 07:53:55;;;;;;;12.45;3.30;;;26.70;58.10;;;;;;5075877;28;20489;-75
2022/09/13 07:56:24;;;;;;;11.32;2.72;;;26.70;58.20;;;;;;5075130;28;20147;-76
2022/09/13 07:58:53;;;;;;;11.95;3.20;;;26.70;58.00;;;;;;5074794;28;20028;-76
2022/09/13 08:01:20;;;;;;;9.82;2.50;;;26.70;57.60;;;;;;5074959;28;20029;-77
2022/09/13 08:03:53;;;;;;;12.50;2.95;;;26.70;57.90;;;;;;5074779;28;20465;-73
2022/09/13 08:06:19;;;;;;;9.50;2.85;;;26.70;57.60;;;;;;5074495;28;20045;-73
2022/09/13 08:08:45;;;;;;;7.45;2.63;;;26.70;57.50;;;;;;5074690;28;20040;-74
2022/09/13 08:11:20;;;;;;;10.73;2.47;;;26.50;57.50;;;;;;5075148;28;20025;-75
2022/09/13 08:13:46;;;;;;;8.60;2.95;;;26.50;57.40;;;;;;5074940;28;20029;-76
2022/09/13 08:16:13;;;;;;;13.65;2.65;;;26.40;58.10;;;;;;5075031;28;20025;-76
2022/09/13 08:18:46;;;;;;;10.95;3.22;;;26.40;58.00;;;;;;5074732;28;20029;-76
2022/09/13 08:21:13;;;;;;;;;;;26.40;58.10;;;;;;5075351;28;20539;-76
2022/09/13 08:23:39;;;;;;;11.30;3.03;;;26.40;57.80;;;;;;5074968;28;19911;-74
2022/09/13 08:26:06;;;;;;;8.90;3.20;;;26.40;58.10;;;;;;5075204;28;20037;-75
2022/09/13 08:28:34;;;;;;;12.60;3.05;;;26.50;58.30;;;;;;5075066;28;20500;-75
2022/09/13 08:31:08;;;;;;;9.30;2.80;;;26.50;57.90;;;;;;5075167;28;20098;-73
2022/09/13 08:33:35;;;;;;;7.65;2.58;;;26.50;57.80;;;;;;5074984;28;20111;-74
2022/09/13 08:36:01;;;;;;;10.82;2.53;;;26.60;57.50;;;;;;5074728;28;20082;-75
2022/09/13 08:38:28;;;;;;;10.88;3.05;;;26.50;57.20;;;;;;5074869;28;20024;-74
2022/09/13 08:41:01;;;;;;;13.05;3.55;;;26.50;57.40;;;;;;5056543;28;20112;-76
2022/09/13 08:43:48;;;;;;;11.15;2.55;;;26.60;57.10;;;;;;5074608;28;20017;-74
2022/09/13 08:46:27;;;;;;;10.13;2.50;;;26.60;56.70;;;;;;5074093;28;20020;-74
2022/09/13 08:48:58;;;;;;;5.88;2.10;;;26.60;56.50;;;;;;5074553;28;20037;-73
2022/09/13 08:51:36;;;;;;;8.88;2.40;;;26.70;56.70;;;;;;5074314;28;20108;-74
2022/09/13 08:54:02;;;;;;;7.75;1.80;;;26.70;56.80;;;;;;5074053;28;20043;-77
2022/09/13 08:56:52;;;;;;;7.03;2.20;;;26.70;56.70;;;;;;5074463;28;20032;-74
2022/09/13 08:59:45;;;;;;;8.38;2.35;;;26.70;56.30;;;;;;5074621;28;20036;-75
2022/09/13 09:02:22;;;;;;;7.85;2.22;;;26.80;56.90;;;;;;5073832;28;20036;-74
2022/09/13 09:05:17;;;;;;;10.57;2.10;;;26.80;56.40;;;;;;5073920;28;20405;-74
2022/09/13 09:07:50;;;;;;;5.53;1.90;;;26.90;55.90;;;;;;5062592;28;20045;-74
2022/09/13 09:10:38;;;;;;;8.52;2.13;;;26.90;55.50;;;;;;5073642;28;20110;-75
2022/09/13 09:13:21;;;;;;;7.07;1.73;;;27.00;55.10;;;;;;5072854;28;20071;-73
2022/09/13 09:15:52;;;;;;;11.85;2.38;;;27.00;53.90;;;;;;5073952;28;20111;-75
2022/09/13 09:18:22;;;;;;;6.75;2.13;;;27.00;54.80;;;;;;5073703;28;20031;-74
2022/09/13 09:20:55;;;;;;;8.40;2.38;;;27.10;54.80;;;;;;5073775;28;20031;-73
2022/09/13 09:23:23;;;;;;;9.38;2.35;;;27.10;54.50;;;;;;5073496;28;20044;-75
2022/09/13 09:26:12;;;;;;;7.93;2.10;;;27.20;54.20;;;;;;5073579;28;20067;-74
2022/09/13 09:28:38;;;;;;;7.57;1.75;;;27.20;53.60;;;;;;5073409;28;20040;-74
2022/09/13 09:31:13;;;;;;;6.55;1.83;;;27.30;53.20;;;;;;5073618;28;20027;-75
2022/09/13 09:33:38;;;;;;;7.63;2.22;;;27.40;52.80;;;;;;5073722;28;20070;-75
2022/09/13 09:36:13;;;;;;;7.53;1.90;;;27.40;52.90;;;;;;5073173;28;20029;-73
2022/09/13 09:38:42;;;;;;;6.90;1.95;;;27.40;51.90;;;;;;5073570;28;20155;-75
2022/09/13 09:41:28;;;;;;;8.88;2.20;;;27.50;52.60;;;;;;5073486;28;20029;-75
2022/09/13 09:44:12;;;;;;;6.97;1.90;;;27.50;51.20;;;;;;5073316;28;20493;-76
2022/09/13 09:46:40;;;;;;;9.32;2.13;;;27.60;50.70;;;;;;5073052;28;20040;-74
2022/09/13 09:52:09;;;;;;;7.90;1.65;;;27.80;51.70;;;;;;5073627;28;20035;-75
2022/09/13 09:54:37;;;;;;;8.32;2.05;;;27.80;51.50;;;;;;5072947;28;20036;-74
2022/09/13 09:57:05;;;;;;;7.35;1.63;;;27.90;51.50;;;;;;5073104;28;20096;-77
2022/09/13 09:59:32;;;;;;;5.80;2.13;;;27.90;51.20;;;;;;5073371;28;20131;-74
2022/09/13 10:02:00;;;;;;;8.68;1.77;;;28.00;51.50;;;;;;5073452;28;20021;-74
2022/09/13 10:04:27;;;;;;;10.18;1.83;;;28.10;51.40;;;;;;5056734;28;20358;-76
2022/09/13 10:07:19;;;;;;;7.93;2.10;;;28.20;51.10;;;;;;5080110;28;20032;-76
2022/09/13 10:10:21;;;;;;;6.75;1.70;;;28.30;48.90;;;;;;5073718;28;20093;-76
2022/09/13 10:12:55;;;;;;;6.60;1.90;;;28.40;50.10;;;;;;5069109;28;20044;-74
2022/09/13 10:15:25;;;;;;;5.82;2.10;;;28.30;50.00;;;;;;5073685;28;20036;-77
2022/09/13 10:18:28;;;;;;;5.15;1.90;;;28.40;49.40;;;;;;5073668;28;20059;-75
2022/09/13 10:21:16;;;;;;;9.13;1.83;;;28.50;49.10;;;;;;4972398;28;20531;-74
2022/09/13 10:23:43;;;;;;;6.63;1.75;;;28.50;46.70;;;;;;5068665;28;20048;-77
2022/09/13 10:26:12;;;;;;;4.50;1.30;;;28.60;48.10;;;;;;5073301;28;20020;-77
2022/09/13 10:29:00;;;;;;;15.48;2.00;;;28.70;47.40;;;;;;5072787;28;20075;-76
2022/09/13 10:31:30;;;;;;;5.78;1.63;;;28.70;45.20;;;;;;5073280;28;20541;-76
2022/09/13 10:33:59;;;;;;;10.70;1.67;;;28.80;46.10;;;;;;5072794;28;20033;-76
2022/09/13 10:36:35;;;;;;;8.73;2.20;;;28.90;46.40;;;;;;5073205;28;20469;-74
2022/09/13 10:39:03;;;;;;;5.32;1.52;;;29.10;46.20;;;;;;5073047;28;20100;-74
2022/09/13 10:41:32;;;;;;;5.85;1.70;;;29.20;45.70;;;;;;5073031;28;20428;-75
2022/09/13 10:44:03;;;;;;;9.38;1.80;;;29.30;45.90;;;;;;5072685;28;20016;-75
2022/09/13 10:46:33;;;;;;;6.68;1.58;;;29.40;45.70;;;;;;5072827;28;20031;-76
2022/09/13 10:48:59;;;;;;;4.53;1.77;;;29.40;45.40;;;;;;5072324;28;20036;-78
2022/09/13 10:51:37;;;;;;;6.53;1.90;;;29.50;44.60;;;;;;5072438;28;20017;-75
2022/09/13 10:54:07;;;;;;;6.97;1.50;;;29.50;43.60;;;;;;5072590;28;20029;-74
2022/09/13 10:56:33;;;;;;;5.43;1.70;;;29.60;44.30;;;;;;5072953;28;20379;-75
2022/09/13 10:59:24;;;;;;;5.63;2.03;;;29.70;43.90;;;;;;5078836;28;20017;-75
2022/09/13 11:02:23;;;;;;;5.78;1.77;;;29.80;44.00;;;;;;5090141;28;20104;-76
2022/09/13 11:05:19;;;;;;;6.22;1.95;;;29.80;42.90;;;;;;5061866;28;20037;-73
2022/09/13 11:07:51;;;;;;;5.72;1.80;;;29.90;42.60;;;;;;5055916;28;20108;-76
2022/09/13 11:10:51;;;;;;;7.57;2.17;;;30.00;43.20;;;;;;5073725;28;20043;-76
2022/09/13 11:13:35;;;;;;;6.65;2.13;;;30.00;43.40;;;;;;5042218;28;20043;-74
2022/09/13 11:16:09;;;;;;;5.20;1.67;;;30.10;43.00;;;;;;5074462;28;20056;-76
2022/09/13 11:18:50;;;;;;;7.25;1.52;;;30.10;42.50;;;;;;5077023;28;20074;-75
2022/09/13 11:21:53;;;;;;;7.95;1.80;;;30.20;42.30;;;;;;5076437;28;20043;-76
2022/09/13 11:24:47;;;;;;;7.75;1.60;;;30.20;42.70;;;;;;5076700;28;20024;-77
2022/09/13 11:27:35;;;;;;;7.45;1.75;;;30.30;41.90;;;;;;5077217;28;20466;-76
2022/09/13 11:30:22;;;;;;;9.90;2.20;;;30.40;41.80;;;;;;5076803;28;20063;-77
2022/09/13 11:33:02;;;;;;;3.70;1.42;;;30.40;43.20;;;;;;5076396;28;20032;-75
2022/09/13 11:35:52;;;;;;;9.23;1.63;;;30.50;41.80;;;;;;5080830;28;20477;-76
2022/09/13 11:38:27;;;;;;;6.25;1.88;;;30.60;41.60;;;;;;5058187;28;20039;-74
2022/09/13 11:41:16;;;;;;;8.18;1.45;;;30.60;42.20;;;;;;5077170;28;20037;-77
2022/09/13 11:44:20;;;;;;;7.68;1.67;;;30.60;41.10;;;;;;5082419;28;20431;-76
2022/09/13 11:47:15;;;;;;;7.25;1.80;;;30.60;40.60;;;;;;5067531;28;20028;-75
2022/09/13 11:50:08;;;;;;;7.85;1.70;;;30.70;41.20;;;;;;5030369;28;20098;-76
2022/09/13 11:52:58;;;;;;;6.28;1.60;;;30.70;40.50;;;;;;5076268;28;20029;-76
2022/09/13 11:55:47;;;;;;;5.72;1.30;;;30.80;40.80;;;;;;5076380;28;20020;-77
2022/09/13 11:58:41;;;;;;;7.95;1.80;;;30.80;40.00;;;;;;5062630;28;20045;-73
2022/09/13 12:01:11;;;;;;;5.00;1.25;;;30.80;39.50;;;;;;5075795;28;20218;-75
2022/09/13 12:03:47;;;;;;;5.18;1.58;;;30.80;39.10;;;;;;5075710;28;20028;-73
2022/09/13 12:06:40;;;;;;;7.47;1.77;;;30.90;39.10;;;;;;5075354;28;20052;-74
2022/09/13 12:09:24;;;;;;;5.60;1.40;;;30.90;38.40;;;;;;5058050;28;20044;-75
2022/09/13 12:12:05;;;;;;;9.65;2.05;;;31.00;38.10;;;;;;5075797;28;20038;-73
2022/09/13 12:15:06;;;;;;;6.03;1.35;;;31.00;38.50;;;;;;5075303;28;20104;-73
2022/09/13 12:17:35;;;;;;;7.03;1.48;;;31.10;38.30;;;;;;5075568;28;20016;-75
2022/09/13 12:20:04;;;;;;;6.78;1.52;;;31.10;38.00;;;;;;5075452;28;20103;-72
2022/09/13 12:22:33;;;;;;;5.80;1.45;;;31.00;37.90;;;;;;5075730;28;20120;-75
2022/09/13 12:25:04;;;;;;;6.53;1.30;;;30.90;37.70;;;;;;5076854;28;20032;-74
2022/09/13 12:27:44;;;;;;;6.30;1.40;;;31.00;37.70;;;;;;5077484;28;20025;-74
2022/09/13 12:30:20;;;;;;;4.28;1.20;;;31.00;38.10;;;;;;5075811;28;20085;-73
2022/09/13 12:32:47;;;;;;;7.25;1.40;;;31.00;38.10;;;;;;5075219;28;20025;-74
2022/09/13 12:35:26;;;;;;;9.63;1.98;;;31.00;37.80;;;;;;5074872;28;20146;-73
2022/09/13 12:38:03;;;;;;;9.05;1.75;;;31.00;38.40;;;;;;5075224;28;20073;-73
2022/09/13 12:40:42;;;;;;;4.82;1.52;;;31.10;38.70;;;;;;5075143;28;20058;-74
2022/09/13 12:43:25;;;;;;;7.68;1.40;;;31.20;38.20;;;;;;5074903;28;20465;-74
2022/09/13 12:46:03;;;;;;;6.63;1.17;;;31.20;37.70;;;;;;5074836;28;20052;-76
2022/09/13 12:48:40;;;;;;;6.05;1.55;;;31.30;38.20;;;;;;5075102;28;20432;-74
2022/09/13 12:51:31;;;;;;;8.93;1.48;;;31.30;38.60;;;;;;5075183;28;20060;-74
2022/09/13 12:54:34;;;;;;;7.88;1.30;;;31.40;38.40;;;;;;5075023;28;20050;-76
2022/09/13 12:57:39;;;;;;;7.23;1.50;;;31.50;38.10;;;;;;5074673;28;20079;-77
2022/09/13 13:00:19;;;;;;;9.27;1.38;;;31.60;38.30;;;;;;5074886;28;20377;-74
2022/09/13 13:03:13;;;;;;;6.63;1.63;;;31.60;37.80;;;;;;5074382;28;20035;-76
2022/09/13 13:05:42;;;;;;;7.53;1.80;;;31.60;37.90;;;;;;5074139;28;20067;-75
2022/09/13 13:08:20;;;;;;;6.47;1.30;;;31.70;38.20;;;;;;5074457;28;20599;-78
2022/09/13 13:11:02;;;;;;;7.18;1.73;;;31.70;38.30;;;;;;5074193;28;20029;-76
2022/09/13 13:13:52;;;;;;;3.25;1.35;;;31.70;38.60;;;;;;5074147;28;20032;-76
2022/09/13 13:16:26;;;;;;;5.10;1.65;;;31.70;38.80;;;;;;5074155;28;20017;-74
2022/09/13 13:18:57;;;;;;;5.47;1.40;;;31.70;39.00;;;;;;5074293;28;20024;-77
2022/09/13 13:21:38;;;;;;;6.05;1.25;;;31.70;38.10;;;;;;5073856;28;20050;-76
2022/09/13 13:24:16;;;;;;;8.98;0.93;;;31.60;37.70;;;;;;5074147;28;20074;-77